Flight Track Log - Related Links

Times and Time Zones

All times are in EDT time to prevent confusion due to time zone crossing. See the N16112 flight status page for this flight to view local times or setup timezone preferences in your user account.

Time Position Orientation Groundspeed Altitude Reporting Facility
EDT Latitude Longitude Course Direction KTS MPH feet Rate Location/Type
Wed 07:41:52 AM 42.9500 -71.4333 276° West 158 182 1,100  Level KA90
Wed 07:43:50 AM 43.0239 -71.5114 322° Northwest 176 203 6,600 2,648 Climbing Boston Center
Wed 07:44:00 AM 42.9578 -71.7124 280° West  Level FlightAware Approximate
Wed 07:44:51 AM 43.0411 -71.5708 292° West 168 193 9,000  Level Boston Center
Wed 07:45:00 AM 42.9675 -71.8070 280° West  Level FlightAware Approximate
Wed 07:45:51 AM 43.0314 -71.6589 261° West 203 234 11,000  Level Boston Center
Wed 07:46:00 AM 42.9794 -71.9014 280° West  Level FlightAware Approximate
Wed 07:46:51 AM 43.0194 -71.7472 260° West 254 292 12,100  Level Boston Center
Wed 07:47:00 AM 43.0006 -71.9917 276° West  Level FlightAware Approximate
Wed 07:47:49 AM 43.0033 -71.8781 260° West 299 344 13,100  Level Boston Center
Wed 07:48:49 AM 42.9894 -71.9917 261° West 335 386 14,200 1,289 Climbing Boston Center
Wed 07:49:50 AM 42.9711 -72.1308 260° West 341 392 15,700 1,438 Climbing Boston Center
Wed 07:50:50 AM 42.9567 -72.2444 260° West 341 392 17,100 1,339 Climbing Boston Center
Wed 07:51:51 AM 42.9403 -72.3861 261° West 346 398 18,400 1,361 Climbing Boston Center
Wed 07:52:49 AM 42.9339 -72.5111 266° West 346 398 19,800 807 Climbing Boston Center
Wed 07:53:50 AM 42.9172 -72.6186 258° West 346 398 20,000 99 Climbing Boston Center
Wed 07:54:50 AM 42.8875 -72.7744 255° West 374 430 20,000  Level Boston Center
Wed 07:55:51 AM 42.8706 -72.9075 260° West 374 430 20,000  Level Boston Center
Wed 07:56:51 AM 42.8531 -73.0489 260° West 355 409 20,000 -102 Level Boston Center
Wed 07:57:49 AM 42.8378 -73.1792 261° West 355 409 19,800 -555 Descending Boston Center
Wed 07:58:50 AM 42.8183 -73.2892 256° West 346 398 18,900 -992 Descending Boston Center
Wed 07:59:50 AM 42.7506 -73.3958 229° Southwest 327 376 17,800 -900 Descending Boston Center
Wed 08:00:50 AM 42.6731 -73.4511 208° Southwest 348 400 17,100 -843 Descending Boston Center
Wed 08:01:51 AM 42.5767 -73.5172 207° Southwest 353 406 16,100 -555 Descending Boston Center
Wed 08:02:49 AM 42.4886 -73.5775 207° Southwest 353 406 16,000 -51 Descending Boston Center
Wed 08:03:49 AM 42.4003 -73.6406 208° Southwest 353 406 16,000  Level Boston Center
Wed 08:04:49 AM 42.3183 -73.7008 209° Southwest 363 418 16,000  Level Boston Center
Wed 08:05:51 AM 42.2239 -73.7606 205° Southwest 379 436 16,000  Level Boston Center
Wed 08:06:49 AM 42.1208 -73.8311 207° Southwest 379 436 16,000  Level Boston Center
Wed 08:07:51 AM 42.0347 -73.8936 208° Southwest 385 443 16,000  Level Boston Center
Wed 08:08:52 AM 41.9294 -73.9636 206° Southwest 390 449 16,000 -303 Level Boston Center
Wed 08:09:50 AM 41.8497 -74.0175 207° Southwest 375 432 15,400 -1,641 Descending Boston Center
Wed 08:10:49 AM 41.7528 -74.0847 207° Southwest 368 423 12,800 -2,319 Descending Boston Center
Wed 08:11:49 AM 41.6708 -74.1381 206° Southwest 352 405 10,800 -1,587 Descending Boston Center
Wed 08:12:50 AM 41.6053 -74.1836 207° Southwest 310 357 9,600 -1,537 Descending Boston Center
Wed 08:13:50 AM 41.5297 -74.2314 205° Southwest 285 328 7,700 -1,289 Descending Boston Center
Wed 08:14:51 AM 41.4728 -74.2742 209° Southwest 279 321 7,000 -212 Descending Boston Center
Wed 08:17:08 AM 41.3167 -74.3833 208° Southwest 272 313 7,000 -274 Level New York TRACON
Wed 08:18:08 AM 41.2333 -74.4167 197° South 273 314 6,100 -450 Descending New York TRACON
Wed 08:19:08 AM 41.1667 -74.4667 209° Southwest 268 308 6,100 -50 Level New York TRACON
Wed 08:20:08 AM 41.1000 -74.5167 209° Southwest 271 312 6,000  Descending New York TRACON
Wed 08:21:08 AM 41.0333 -74.5500 201° Southwest 262 302 6,100  Climbing New York TRACON
Wed 08:22:08 AM 40.9667 -74.5500 180° South 271 312 6,000  Descending New York TRACON
Wed 08:23:08 AM 40.8833 -74.5500 180° South 271 312 6,100 -211 Climbing New York TRACON
Wed 08:24:02 AM 40.8333 -74.5333 166° South 283 326 5,600 -579 Descending New York TRACON
Wed 08:25:02 AM 40.7500 -74.5167 171° South 278 320 5,000 -650 Descending New York TRACON
Wed 08:26:02 AM 40.6833 -74.4833 159° South 271 312 4,300 -500 Descending New York TRACON
Wed 08:27:02 AM 40.6000 -74.4500 163° South 259 298 4,000 -300 Descending New York TRACON
Wed 08:28:02 AM 40.5500 -74.3833 135° Southeast 267 307 3,700 -595 Descending New York TRACON
Wed 08:29:03 AM 40.5333 -74.3000 105° East 248 285 2,800 -850 Descending New York TRACON
Wed 08:30:02 AM 40.5667 -74.2500 49° Northeast 197 227 2,000 -814 Descending New York TRACON

Login

Don't have an account? Register now (free) for customized features, flight alerts, and more!